Time;durP1;ratioP1;P1;durP2;ratioP2;P2;SDS_P1;SDS_P2;PMS_P1;PMS_P2;Temp;Humidity;BMP_temperature;BMP_pressure;BME280_temperature;BME280_humidity;BME280_pressure;Samples;Min_cycle;Max_cycle;Signal;HPM_P1;HPM_P2
2023/10/23 00:00:19;;;;;;;1.90;0.30;;;11.80;1.00;;;;;;5137561;27;20422;-54
2023/10/23 00:02:46;;;;;;;0.70;0.30;;;11.80;1.00;;;;;;5137482;27;20418;-52
2023/10/23 00:05:13;;;;;;;1.55;0.40;;;11.70;1.00;;;;;;5137709;27;20410;-52
2023/10/23 00:07:40;;;;;;;0.70;0.30;;;11.70;1.00;;;;;;5137299;27;20422;-58
2023/10/23 00:10:08;;;;;;;1.30;0.40;;;11.60;1.00;;;;;;5136581;27;20521;-54
2023/10/23 00:12:35;;;;;;;0.80;0.30;;;11.50;1.00;;;;;;5136710;27;20422;-54
2023/10/23 00:15:05;;;;;;;1.50;0.30;;;11.50;1.00;;;;;;5137134;27;20735;-51
2023/10/23 00:17:32;;;;;;;0.80;0.38;;;11.50;1.00;;;;;;5135242;27;20752;-55
2023/10/23 00:20:00;;;;;;;0.90;0.60;;;11.50;1.00;;;;;;5134590;27;20406;-55
2023/10/23 00:22:27;;;;;;;0.90;0.40;;;11.50;1.00;;;;;;5134151;27;20894;-53
2023/10/23 00:24:54;;;;;;;0.70;0.30;;;11.50;1.00;;;;;;5135058;27;20865;-56
2023/10/23 00:27:21;;;;;;;1.00;0.30;;;11.50;1.00;;;;;;5136228;27;20422;-54
2023/10/23 00:29:48;;;;;;;1.40;0.40;;;11.50;1.00;;;;;;5136526;27;20422;-53
2023/10/23 00:32:16;;;;;;;0.90;0.30;;;11.50;1.00;;;;;;5136402;27;20410;-52
2023/10/23 00:34:43;;;;;;;1.30;0.40;;;11.50;1.00;;;;;;5136431;27;20414;-54
2023/10/23 00:37:10;;;;;;;0.70;0.30;;;11.50;1.00;;;;;;5137008;27;20418;-54
2023/10/23 00:39:37;;;;;;;0.60;0.30;;;11.40;1.00;;;;;;5136485;27;20475;-54
2023/10/23 00:42:05;;;;;;;1.83;0.40;;;11.40;1.00;;;;;;5136563;27;20441;-56
2023/10/23 00:44:32;;;;;;;0.80;0.40;;;11.40;1.00;;;;;;5135896;27;20418;-54
2023/10/23 00:46:59;;;;;;;0.70;0.40;;;11.40;1.00;;;;;;5135999;27;20856;-54
2023/10/23 00:49:28;;;;;;;0.90;0.30;;;11.40;1.00;;;;;;5136254;27;20444;-54
2023/10/23 00:51:55;;;;;;;2.03;0.40;;;11.30;1.00;;;;;;5136778;27;20430;-55
2023/10/23 00:54:23;;;;;;;1.60;0.40;;;11.30;1.00;;;;;;5136237;27;20467;-54
2023/10/23 00:56:50;;;;;;;0.90;0.47;;;11.30;1.00;;;;;;5135434;27;20475;-53
2023/10/23 00:59:17;;;;;;;0.80;0.35;;;11.30;1.00;;;;;;5136393;27;20423;-54
2023/10/23 01:01:45;;;;;;;1.00;0.50;;;11.30;1.00;;;;;;5135658;27;20414;-52
2023/10/23 01:04:13;;;;;;;1.30;0.40;;;11.30;1.00;;;;;;5135671;27;20471;-53
2023/10/23 01:06:41;;;;;;;0.70;0.40;;;11.20;1.00;;;;;;5136248;27;20707;-52
2023/10/23 01:09:08;;;;;;;0.70;0.40;;;11.20;1.00;;;;;;5135958;27;20490;-55
2023/10/23 01:11:35;;;;;;;2.03;0.40;;;11.20;1.00;;;;;;5135898;27;20767;-55
2023/10/23 01:14:02;;;;;;;1.08;0.50;;;11.20;1.00;;;;;;5135862;27;20772;-53
2023/10/23 01:16:29;;;;;;;0.90;0.40;;;11.30;1.00;;;;;;5135854;27;20426;-54
2023/10/23 01:18:56;;;;;;;1.10;0.30;;;11.40;1.00;;;;;;5135831;27;20834;-53
2023/10/23 01:21:23;;;;;;;1.00;0.40;;;11.40;1.00;;;;;;5134391;27;20490;-55
2023/10/23 01:23:53;;;;;;;0.60;0.30;;;11.40;1.00;;;;;;5134469;27;20780;-53
2023/10/23 01:26:21;;;;;;;1.70;0.43;;;11.30;1.00;;;;;;5135204;27;20414;-53
2023/10/23 01:28:48;;;;;;;0.70;0.40;;;11.20;1.00;;;;;;5135050;27;20410;-53
2023/10/23 01:31:15;;;;;;;0.80;0.45;;;11.20;1.00;;;;;;5134349;27;20909;-55
2023/10/23 01:33:42;;;;;;;1.30;0.40;;;11.10;1.00;;;;;;5134052;27;20483;-54
2023/10/23 01:36:09;;;;;;;1.30;0.40;;;11.00;1.00;;;;;;5133510;27;20481;-53
2023/10/23 01:38:36;;;;;;;0.60;0.40;;;11.00;1.00;;;;;;5134110;27;20817;-54
2023/10/23 01:41:03;;;;;;;1.20;0.40;;;10.90;1.00;;;;;;5134983;27;20479;-55
2023/10/23 01:43:31;;;;;;;0.90;0.40;;;10.90;1.00;;;;;;5135168;27;20506;-58
2023/10/23 01:45:59;;;;;;;0.60;0.30;;;10.90;1.00;;;;;;5134100;27;20422;-53
2023/10/23 01:48:26;;;;;;;0.90;0.40;;;10.90;1.00;;;;;;5134162;27;20471;-55
2023/10/23 01:50:53;;;;;;;0.60;0.30;;;10.90;1.00;;;;;;5135752;27;20901;-56
2023/10/23 01:53:20;;;;;;;1.08;0.40;;;10.80;1.00;;;;;;5135987;27;20467;-50
2023/10/23 01:55:47;;;;;;;1.60;0.30;;;10.70;1.00;;;;;;5136176;27;20419;-56
2023/10/23 01:58:14;;;;;;;1.30;0.30;;;10.80;1.00;;;;;;5135764;27;20422;-54
2023/10/23 02:00:42;;;;;;;0.90;0.30;;;10.90;1.00;;;;;;5136225;27;20423;-55
2023/10/23 02:03:09;;;;;;;0.73;0.30;;;10.90;1.00;;;;;;5134725;27;20478;-51
2023/10/23 02:05:37;;;;;;;0.50;0.30;;;10.90;1.00;;;;;;5134604;27;20418;-54
2023/10/23 02:08:04;;;;;;;0.70;0.30;;;10.90;1.00;;;;;;5134569;27;20818;-55
2023/10/23 02:10:31;;;;;;;1.30;0.30;;;10.80;1.00;;;;;;5134852;27;20482;-54
2023/10/23 02:12:58;;;;;;;0.68;0.30;;;10.90;1.00;;;;;;5134449;27;20818;-54
2023/10/23 02:15:25;;;;;;;1.30;0.37;;;11.00;1.00;;;;;;5134516;27;20487;-51
2023/10/23 02:17:54;;;;;;;1.10;0.30;;;11.00;1.00;;;;;;5134967;27;20418;-57
2023/10/23 02:20:22;;;;;;;1.20;0.30;;;11.00;1.00;;;;;;5135407;27;20410;-55
2023/10/23 02:22:49;;;;;;;1.40;0.30;;;11.00;1.00;;;;;;5135485;28;20419;-55
2023/10/23 02:25:16;;;;;;;1.20;0.40;;;11.10;1.00;;;;;;5135732;27;20483;-54
2023/10/23 02:27:42;;;;;;;1.40;0.40;;;11.10;1.00;;;;;;5135757;27;20422;-53
2023/10/23 02:30:11;;;;;;;1.20;0.40;;;11.10;1.00;;;;;;5135556;27;20487;-54
2023/10/23 02:32:38;;;;;;;2.60;0.40;;;11.20;1.00;;;;;;5135301;27;21322;-54
2023/10/23 02:35:07;;;;;;;0.60;0.30;;;11.30;1.00;;;;;;5135868;27;20527;-55
2023/10/23 02:37:35;;;;;;;1.00;0.40;;;11.20;1.00;;;;;;5135631;27;20514;-57
2023/10/23 02:40:03;;;;;;;0.70;0.40;;;11.20;1.00;;;;;;5135895;27;20477;-53
2023/10/23 02:42:30;;;;;;;0.60;0.30;;;11.20;1.00;;;;;;5135439;27;20526;-51
2023/10/23 02:44:57;;;;;;;0.67;0.30;;;11.00;1.00;;;;;;5135517;27;20422;-54
2023/10/23 02:47:24;;;;;;;0.70;0.30;;;10.90;1.00;;;;;;5135638;27;20419;-54
2023/10/23 02:49:53;;;;;;;0.70;0.30;;;10.80;1.00;;;;;;5135582;27;20410;-55
2023/10/23 02:52:22;;;;;;;0.70;0.35;;;10.70;1.00;;;;;;5138603;27;20430;-52
2023/10/23 02:54:50;;;;;;;0.40;0.20;;;10.70;1.00;;;;;;5139329;27;20837;-53
2023/10/23 02:57:17;;;;;;;0.75;0.30;;;10.60;1.00;;;;;;5139291;27;20487;-52
2023/10/23 02:59:47;;;;;;;0.70;0.30;;;10.50;1.00;;;;;;5138945;27;20826;-57
2023/10/23 03:02:14;;;;;;;1.90;0.40;;;10.50;1.00;;;;;;5139154;27;20446;-53
2023/10/23 03:04:42;;;;;;;0.80;0.30;;;10.50;1.00;;;;;;5139305;27;20554;-55
2023/10/23 03:07:09;;;;;;;0.60;0.30;;;10.40;1.00;;;;;;5138315;27;20501;-54
2023/10/23 03:09:37;;;;;;;1.17;0.30;;;10.30;1.00;;;;;;5137553;27;20718;-56
2023/10/23 03:12:05;;;;;;;1.40;0.30;;;10.20;1.00;;;;;;5137677;27;20502;-53
2023/10/23 03:14:32;;;;;;;2.25;0.40;;;10.30;1.00;;;;;;5136466;27;20414;-54
2023/10/23 03:16:59;;;;;;;1.25;0.40;;;10.30;1.00;;;;;;5137554;27;20459;-55
2023/10/23 03:19:26;;;;;;;1.13;0.40;;;10.20;1.00;;;;;;5138133;27;20436;-55
2023/10/23 03:21:53;;;;;;;0.90;0.40;;;10.20;1.00;;;;;;5138215;27;20415;-54
2023/10/23 03:24:20;;;;;;;0.60;0.30;;;10.10;1.00;;;;;;5138948;27;20478;-54
2023/10/23 03:26:48;;;;;;;1.40;0.40;;;10.10;1.00;;;;;;5138750;27;20421;-55
2023/10/23 03:29:15;;;;;;;0.88;0.50;;;10.10;1.00;;;;;;5138615;27;20482;-52
2023/10/23 03:31:42;;;;;;;1.20;0.40;;;10.00;1.00;;;;;;5138794;27;20434;-56
2023/10/23 03:34:09;;;;;;;1.30;0.40;;;10.00;1.00;;;;;;5137894;27;20422;-54
2023/10/23 03:36:36;;;;;;;0.82;0.50;;;10.10;1.00;;;;;;5137521;27;20500;-54
2023/10/23 03:39:03;;;;;;;0.88;0.40;;;10.10;1.00;;;;;;5138472;27;20422;-56
2023/10/23 03:41:30;;;;;;;0.90;0.30;;;10.10;1.00;;;;;;5138307;27;20427;-55
2023/10/23 03:44:01;;;;;;;0.80;0.40;;;10.00;1.00;;;;;;5138252;27;20422;-51
2023/10/23 03:46:28;;;;;;;1.30;0.30;;;10.10;1.00;;;;;;5138637;27;20483;-56
2023/10/23 03:48:56;;;;;;;1.10;0.40;;;10.10;1.00;;;;;;5138608;27;20414;-54
2023/10/23 03:51:23;;;;;;;0.70;0.40;;;10.20;1.00;;;;;;5137874;27;20530;-55
2023/10/23 03:53:50;;;;;;;0.70;0.40;;;10.20;1.00;;;;;;5137875;27;20422;-53
2023/10/23 03:56:17;;;;;;;0.50;0.30;;;10.10;1.00;;;;;;5137817;27;20492;-55
2023/10/23 03:58:44;;;;;;;2.00;0.40;;;10.00;1.00;;;;;;5137596;27;20466;-55
2023/10/23 04:01:13;;;;;;;0.93;0.40;;;9.90;1.00;;;;;;5136868;27;20471;-56
2023/10/23 04:03:40;;;;;;;0.90;0.43;;;10.00;1.00;;;;;;5135943;27;20418;-56
2023/10/23 04:06:07;;;;;;;1.40;0.40;;;10.20;1.00;;;;;;5136226;27;20436;-54
2023/10/23 04:08:34;;;;;;;1.17;0.40;;;10.20;1.00;;;;;;5135860;27;20417;-54
2023/10/23 04:11:01;;;;;;;0.98;0.40;;;10.20;1.00;;;;;;5136446;27;20422;-55
2023/10/23 04:13:28;;;;;;;0.90;0.43;;;10.20;1.00;;;;;;5136398;27;20857;-56
2023/10/23 04:15:55;;;;;;;1.17;0.40;;;10.10;1.00;;;;;;5137338;27;20422;-55
2023/10/23 04:18:25;;;;;;;1.60;0.50;;;10.00;1.00;;;;;;5137151;27;20860;-54
2023/10/23 04:21:02;;;;;;;0.90;0.40;;;9.90;1.00;;;;;;5137843;27;20423;-55
2023/10/23 04:23:29;;;;;;;0.80;0.40;;;9.90;1.00;;;;;;5137194;27;20415;-54
2023/10/23 04:25:56;;;;;;;0.73;0.40;;;9.80;1.00;;;;;;5137640;27;20767;-53
2023/10/23 04:28:23;;;;;;;0.65;0.40;;;9.80;1.00;;;;;;5137246;27;20476;-54
2023/10/23 04:30:50;;;;;;;1.00;0.50;;;9.80;1.00;;;;;;5137110;27;20418;-55
2023/10/23 04:33:21;;;;;;;1.37;0.50;;;9.90;1.00;;;;;;5137045;27;20438;-54
2023/10/23 04:35:50;;;;;;;2.22;0.50;;;10.00;1.00;;;;;;5137705;27;20418;-55
2023/10/23 04:38:17;;;;;;;0.93;0.40;;;10.00;1.00;;;;;;5136559;27;21001;-55
2023/10/23 04:40:44;;;;;;;1.30;0.40;;;10.10;1.00;;;;;;5136529;27;20874;-55
2023/10/23 04:43:11;;;;;;;1.15;0.40;;;10.00;1.00;;;;;;5135553;27;20894;-52
2023/10/23 04:45:38;;;;;;;1.30;0.50;;;9.90;1.00;;;;;;5136631;27;20426;-55
2023/10/23 04:48:06;;;;;;;1.00;0.50;;;9.90;1.00;;;;;;5136234;27;20434;-53
2023/10/23 04:50:33;;;;;;;0.90;0.40;;;9.90;1.00;;;;;;5136863;27;20490;-53
2023/10/23 04:53:01;;;;;;;1.30;0.50;;;9.90;1.00;;;;;;5136923;27;20423;-56
2023/10/23 04:55:32;;;;;;;0.60;0.40;;;9.90;1.00;;;;;;5136090;27;20444;-53
2023/10/23 04:57:59;;;;;;;1.17;0.50;;;9.80;1.00;;;;;;5137392;27;20810;-53
2023/10/23 05:00:26;;;;;;;1.20;0.50;;;9.80;1.00;;;;;;5134482;27;20490;-56
2023/10/23 05:02:53;;;;;;;1.10;0.50;;;9.80;1.00;;;;;;5134317;27;20406;-53
2023/10/23 05:05:20;;;;;;;0.80;0.50;;;9.80;1.00;;;;;;5133975;27;20471;-54
2023/10/23 05:07:47;;;;;;;0.90;0.50;;;9.70;1.00;;;;;;5133614;27;20410;-56
2023/10/23 05:10:18;;;;;;;1.20;0.30;;;9.70;1.00;;;;;;5133730;27;21011;-54
2023/10/23 05:12:46;;;;;;;1.45;0.40;;;9.70;1.00;;;;;;5133374;27;20438;-54
2023/10/23 05:15:13;;;;;;;1.83;0.50;;;9.80;1.00;;;;;;5133782;27;20791;-54
2023/10/23 05:17:40;;;;;;;1.50;0.40;;;9.90;1.00;;;;;;5134804;27;20495;-56
2023/10/23 05:20:08;;;;;;;1.10;0.47;;;10.00;1.00;;;;;;5135747;27;20895;-53
2023/10/23 05:22:35;;;;;;;0.90;0.50;;;10.00;1.00;;;;;;5135742;27;20772;-54
2023/10/23 05:25:03;;;;;;;1.83;0.50;;;10.00;1.00;;;;;;5134154;27;20426;-51
2023/10/23 05:27:31;;;;;;;1.00;0.50;;;9.90;1.00;;;;;;5134672;27;20423;-50
2023/10/23 05:29:57;;;;;;;1.60;0.50;;;9.80;1.00;;;;;;5134789;27;20422;-57
2023/10/23 05:32:24;;;;;;;0.80;0.50;;;9.80;1.00;;;;;;5132627;27;20475;-53
2023/10/23 05:34:51;;;;;;;1.23;0.50;;;9.90;8.30;;;;;;5131255;27;20418;-53
2023/10/23 05:37:18;;;;;;;1.30;0.60;;;9.90;1.00;;;;;;5132018;27;21011;-52
2023/10/23 05:39:45;;;;;;;1.27;0.60;;;9.80;1.00;;;;;;5132927;27;20426;-53
2023/10/23 05:42:12;;;;;;;1.20;0.50;;;9.70;1.00;;;;;;5132523;27;20841;-52
2023/10/23 05:44:40;;;;;;;1.27;0.60;;;9.60;1.00;;;;;;5132901;27;20471;-51
2023/10/23 05:47:07;;;;;;;0.80;0.50;;;9.50;1.00;;;;;;5134144;27;20838;-53
2023/10/23 05:49:34;;;;;;;1.50;0.60;;;9.60;1.00;;;;;;5135551;27;20512;-51
2023/10/23 05:52:01;;;;;;;1.20;0.50;;;9.60;1.00;;;;;;5133611;27;20870;-52
2023/10/23 05:54:28;;;;;;;0.90;0.50;;;9.70;5.50;;;;;;5133459;27;20849;-54
2023/10/23 05:56:55;;;;;;;2.00;0.60;;;9.80;1.00;;;;;;5134427;27;20663;-52
2023/10/23 05:59:23;;;;;;;2.60;0.50;;;9.70;1.00;;;;;;5134658;27;20415;-54
2023/10/23 06:01:52;;;;;;;0.90;0.60;;;9.60;1.00;;;;;;5129327;27;20485;-53
2023/10/23 06:04:19;;;;;;;1.83;0.50;;;9.40;1.00;;;;;;5119950;27;20433;-55
2023/10/23 06:06:46;;;;;;;2.05;0.60;;;9.30;1.00;;;;;;5127057;27;20695;-54
2023/10/23 06:09:13;;;;;;;1.13;0.60;;;9.20;1.00;;;;;;5131381;27;20906;-53
2023/10/23 06:11:40;;;;;;;1.70;0.50;;;9.00;6.30;;;;;;5133349;27;20422;-53
2023/10/23 06:14:07;;;;;;;1.50;0.60;;;8.90;28.70;;;;;;5113063;28;20770;-55
2023/10/23 06:16:34;;;;;;;1.10;0.60;;;8.90;38.00;;;;;;5111249;28;20725;-54
2023/10/23 06:19:05;;;;;;;1.40;0.70;;;8.90;49.70;;;;;;5112268;28;20420;-53
2023/10/23 06:21:32;;;;;;;1.15;0.60;;;8.90;55.10;;;;;;5117995;27;20786;-53
2023/10/23 06:23:59;;;;;;;1.67;0.60;;;8.80;83.00;;;;;;5115838;28;21056;-52
2023/10/23 06:26:28;;;;;;;1.40;0.60;;;8.90;93.00;;;;;;5125869;27;20718;-57
2023/10/23 06:28:55;;;;;;;1.80;0.60;;;8.90;99.90;;;;;;5130738;27;20865;-58
2023/10/23 06:31:22;;;;;;;1.00;0.70;;;8.90;99.90;;;;;;5130519;27;20433;-57
2023/10/23 06:33:51;;;;;;;3.05;0.60;;;8.80;99.90;;;;;;5136843;27;20462;-57
2023/10/23 06:36:19;;;;;;;0.93;0.60;;;8.90;99.90;;;;;;5136327;27;20441;-58
2023/10/23 06:38:46;;;;;;;1.65;0.70;;;8.90;99.90;;;;;;5134434;27;20434;-58
2023/10/23 06:41:13;;;;;;;1.05;0.68;;;8.90;99.90;;;;;;5132335;27;20414;-58
2023/10/23 06:43:41;;;;;;;0.90;0.60;;;8.90;99.90;;;;;;5133148;27;20429;-57
2023/10/23 06:46:08;;;;;;;1.05;0.60;;;8.90;99.90;;;;;;5133646;27;20511;-58
2023/10/23 06:48:35;;;;;;;2.37;0.70;;;8.90;99.90;;;;;;5131314;27;20502;-58
2023/10/23 06:51:03;;;;;;;1.35;0.60;;;8.80;99.90;;;;;;5120278;27;20436;-58
2023/10/23 06:53:31;;;;;;;1.63;0.60;;;8.80;99.90;;;;;;5135144;27;20441;-58
2023/10/23 06:55:58;;;;;;;1.70;0.60;;;8.70;99.90;;;;;;5136111;27;20641;-58
2023/10/23 06:58:25;;;;;;;1.20;0.60;;;8.90;99.90;;;;;;5132384;27;20490;-58
2023/10/23 07:00:52;;;;;;;1.10;0.70;;;9.10;99.90;;;;;;5131365;27;20514;-58
2023/10/23 07:03:19;;;;;;;2.30;0.90;;;9.40;99.90;;;;;;5132495;27;20434;-58
2023/10/23 07:05:47;;;;;;;1.50;0.70;;;9.50;99.90;;;;;;5127503;27;20436;-58
2023/10/23 07:08:14;;;;;;;1.10;0.70;;;9.40;99.90;;;;;;5130749;27;20457;-58
2023/10/23 07:10:42;;;;;;;1.25;0.60;;;9.60;99.90;;;;;;5136087;27;21030;-58
2023/10/23 07:13:09;;;;;;;1.58;0.60;;;9.70;99.90;;;;;;5134407;27;20434;-58
2023/10/23 07:15:38;;;;;;;1.20;0.70;;;9.80;99.90;;;;;;5136190;27;20486;-58
2023/10/23 07:18:05;;;;;;;1.15;0.70;;;9.70;99.90;;;;;;5134648;27;20434;-57
2023/10/23 07:20:32;;;;;;;1.30;0.80;;;9.90;99.90;;;;;;5135469;27;20441;-58
2023/10/23 07:22:59;;;;;;;2.17;0.80;;;9.90;99.90;;;;;;5121770;27;20433;-58
2023/10/23 07:25:26;;;;;;;1.17;0.70;;;9.90;99.90;;;;;;5132223;27;20479;-58
2023/10/23 07:27:55;;;;;;;0.80;0.50;;;10.00;99.90;;;;;;5130200;27;20438;-58
2023/10/23 07:30:24;;;;;;;1.85;0.70;;;10.10;99.90;;;;;;5131885;27;20442;-58
2023/10/23 07:32:51;;;;;;;1.65;0.80;;;10.20;99.90;;;;;;5134192;27;20512;-58
2023/10/23 07:35:18;;;;;;;1.20;0.80;;;10.10;99.90;;;;;;5135356;27;20430;-58
2023/10/23 07:37:45;;;;;;;1.80;0.88;;;10.00;99.90;;;;;;5125286;27;20454;-58
2023/10/23 07:40:12;;;;;;;1.90;0.80;;;9.90;99.90;;;;;;5127426;27;20723;-59
2023/10/23 07:42:39;;;;;;;1.25;0.80;;;9.70;99.90;;;;;;5132406;27;20434;-58
2023/10/23 07:45:09;;;;;;;1.48;0.80;;;9.80;99.90;;;;;;5136108;27;20507;-58
2023/10/23 07:47:36;;;;;;;1.80;0.82;;;10.10;99.90;;;;;;5131073;27;20856;-59
2023/10/23 07:50:05;;;;;;;2.05;0.80;;;10.20;99.90;;;;;;5134864;27;20842;-59
2023/10/23 07:52:32;;;;;;;2.08;0.80;;;10.50;99.90;;;;;;5132576;27;20430;-59
2023/10/23 07:54:59;;;;;;;2.10;0.77;;;10.60;99.90;;;;;;5133596;27;20470;-58
2023/10/23 07:57:29;;;;;;;1.45;0.80;;;10.70;99.90;;;;;;5130982;27;20467;-59
2023/10/23 07:59:56;;;;;;;1.85;0.80;;;10.50;99.90;;;;;;5136154;27;20756;-58
2023/10/23 08:02:24;;;;;;;1.10;0.80;;;10.50;99.90;;;;;;5138117;27;20427;-58
2023/10/23 08:04:51;;;;;;;1.50;0.93;;;10.60;99.90;;;;;;5135367;27;20822;-59
2023/10/23 08:07:18;;;;;;;1.70;0.80;;;10.50;99.90;;;;;;5132246;27;20491;-59
2023/10/23 08:09:45;;;;;;;1.50;0.80;;;10.40;99.90;;;;;;5131019;27;20434;-59
2023/10/23 08:12:12;;;;;;;1.60;0.80;;;10.40;99.90;;;;;;5131919;27;20439;-58
2023/10/23 08:14:39;;;;;;;3.08;0.88;;;10.40;99.90;;;;;;5131852;27;20849;-59
2023/10/23 08:17:06;;;;;;;1.77;0.80;;;10.40;99.90;;;;;;5131653;27;20471;-59
2023/10/23 08:19:34;;;;;;;1.30;0.88;;;10.50;99.90;;;;;;5113225;27;20473;-59
2023/10/23 08:22:01;;;;;;;2.30;0.80;;;10.60;99.90;;;;;;5132783;27;20491;-59
2023/10/23 08:24:28;;;;;;;1.43;0.90;;;10.60;99.90;;;;;;5133460;27;20422;-58
2023/10/23 08:26:55;;;;;;;1.77;0.90;;;10.60;99.90;;;;;;5132736;27;20486;-59
2023/10/23 08:29:22;;;;;;;1.80;0.85;;;10.50;99.90;;;;;;5130407;27;20503;-59
2023/10/23 08:31:49;;;;;;;1.30;0.70;;;10.60;99.90;;;;;;5132855;27;20918;-59
2023/10/23 08:34:20;;;;;;;2.00;0.80;;;10.90;99.90;;;;;;5132294;27;20426;-59
2023/10/23 08:36:49;;;;;;;1.30;0.80;;;11.10;99.90;;;;;;5132748;27;20462;-59
2023/10/23 08:39:18;;;;;;;1.50;0.80;;;11.20;99.90;;;;;;5132223;27;20725;-59
2023/10/23 08:41:45;;;;;;;1.60;0.83;;;11.30;99.90;;;;;;5132519;27;20458;-59
2023/10/23 08:44:12;;;;;;;1.50;0.80;;;11.50;99.90;;;;;;5131921;27;20781;-59
2023/10/23 08:46:41;;;;;;;2.20;0.88;;;11.40;99.90;;;;;;5130241;27;20438;-58
2023/10/23 08:49:08;;;;;;;1.30;0.80;;;11.50;99.90;;;;;;5132891;27;20499;-59
2023/10/23 08:51:36;;;;;;;2.10;0.90;;;11.50;99.90;;;;;;5132846;27;20522;-59
2023/10/23 08:54:07;;;;;;;3.50;0.90;;;11.70;99.90;;;;;;5134251;27;20437;-57
2023/10/23 08:56:37;;;;;;;2.47;0.90;;;11.70;99.90;;;;;;5129466;27;20554;-56
2023/10/23 08:59:04;;;;;;;2.50;0.82;;;11.90;99.90;;;;;;5132994;27;20947;-58
2023/10/23 09:01:33;;;;;;;2.40;0.90;;;12.00;99.90;;;;;;5132007;27;20414;-55
2023/10/23 09:04:00;;;;;;;1.25;0.70;;;12.20;99.90;;;;;;5132504;27;20471;-58
2023/10/23 09:06:28;;;;;;;2.47;0.80;;;12.40;99.90;;;;;;5127881;27;20542;-56
2023/10/23 09:08:56;;;;;;;2.20;0.80;;;12.50;99.90;;;;;;5131875;27;20430;-59
2023/10/23 09:11:38;;;;;;;1.80;0.80;;;12.50;99.90;;;;;;5125847;27;20479;-58
2023/10/23 09:14:05;;;;;;;3.08;1.00;;;12.60;99.90;;;;;;5127978;27;20429;-58
2023/10/23 09:16:32;;;;;;;1.30;0.80;;;12.60;99.90;;;;;;5128729;27;20430;-59
2023/10/23 09:18:59;;;;;;;1.50;0.90;;;12.60;99.90;;;;;;5130257;27;20430;-58
2023/10/23 09:21:27;;;;;;;3.10;0.80;;;12.70;99.90;;;;;;5129940;27;20434;-57
2023/10/23 09:23:55;;;;;;;1.40;0.80;;;12.80;99.90;;;;;;5132337;27;20430;-57
2023/10/23 09:26:24;;;;;;;1.38;1.00;;;12.60;99.90;;;;;;5121508;27;20436;-58
2023/10/23 09:28:52;;;;;;;1.40;0.80;;;12.60;99.90;;;;;;5111481;28;20420;-58
2023/10/23 09:31:20;;;;;;;1.70;0.90;;;12.50;99.90;;;;;;5117576;27;20750;-58
2023/10/23 09:33:48;;;;;;;1.60;0.90;;;12.50;99.90;;;;;;5132161;27;20450;-58
2023/10/23 09:36:15;;;;;;;4.30;1.10;;;12.30;99.90;;;;;;5130891;27;20483;-57
2023/10/23 09:38:43;;;;;;;4.10;1.20;;;12.20;1.00;;;;;;5127614;27;20490;-58
2023/10/23 09:41:10;;;;;;;3.20;1.10;;;12.20;1.00;;;;;;5126935;27;20438;-58
2023/10/23 09:43:45;;;;;;;1.60;0.90;;;12.20;1.00;;;;;;5131092;27;20439;-57
2023/10/23 09:46:13;;;;;;;4.37;1.17;;;12.20;1.00;;;;;;5130813;27;20537;-57
2023/10/23 09:48:41;;;;;;;1.98;1.00;;;12.20;1.00;;;;;;5132474;27;20471;-56
2023/10/23 09:51:14;;;;;;;2.47;1.30;;;12.10;1.00;;;;;;5130166;27;20537;-58
2023/10/23 09:53:45;;;;;;;1.80;1.00;;;12.00;1.00;;;;;;5123058;27;20429;-58
2023/10/23 09:56:15;;;;;;;3.80;1.10;;;12.10;1.00;;;;;;5129201;27;20464;-57
2023/10/23 09:58:48;;;;;;;1.77;1.10;;;12.30;1.00;;;;;;5129819;27;20510;-58
2023/10/23 10:01:18;;;;;;;5.10;1.10;;;12.40;1.00;;;;;;5131308;27;20498;-59
2023/10/23 10:03:48;;;;;;;4.70;1.00;;;12.40;1.00;;;;;;5132440;27;20917;-59
2023/10/23 10:06:20;;;;;;;3.63;1.10;;;12.40;99.90;;;;;;5125410;27;20435;-58
2023/10/23 10:08:51;;;;;;;3.60;1.10;;;12.40;1.00;;;;;;5125507;27;20434;-58
2023/10/23 10:11:19;;;;;;;1.90;1.00;;;12.30;1.00;;;;;;5128563;27;20422;-58
2023/10/23 10:13:48;;;;;;;2.27;1.00;;;12.30;1.00;;;;;;5131550;27;20464;-58
2023/10/23 10:16:16;;;;;;;4.45;1.00;;;12.30;1.00;;;;;;5127488;27;20430;-58
2023/10/23 10:18:43;;;;;;;2.45;1.10;;;12.30;1.00;;;;;;5123914;28;20446;-61
2023/10/23 10:21:14;;;;;;;3.40;1.10;;;12.20;1.00;;;;;;5127345;27;20495;-63
2023/10/23 10:23:42;;;;;;;2.42;1.13;;;12.30;1.00;;;;;;5127778;28;20430;-58
2023/10/23 10:26:09;;;;;;;3.20;1.10;;;12.30;1.00;;;;;;5130983;27;20909;-58
2023/10/23 10:28:40;;;;;;;2.70;1.10;;;12.50;1.00;;;;;;5127401;27;20494;-53
2023/10/23 10:31:08;;;;;;;4.25;1.40;;;12.50;1.00;;;;;;5125518;27;20438;-55
2023/10/23 10:33:38;;;;;;;3.97;1.20;;;12.50;1.00;;;;;;5130533;27;20430;-56
2023/10/23 10:36:08;;;;;;;3.45;1.33;;;12.40;1.00;;;;;;5131714;27;20502;-57
2023/10/23 10:38:36;;;;;;;3.20;1.20;;;12.50;1.00;;;;;;5129780;27;20418;-57
2023/10/23 10:41:04;;;;;;;5.90;1.30;;;12.60;1.00;;;;;;5129098;27;20754;-56
2023/10/23 10:43:32;;;;;;;3.40;1.10;;;12.80;1.00;;;;;;5128926;27;20471;-56
2023/10/23 10:46:01;;;;;;;5.72;1.30;;;13.00;1.00;;;;;;5129338;27;20452;-57
2023/10/23 10:48:42;;;;;;;3.17;1.20;;;13.20;99.90;;;;;;5130951;27;20937;-57
2023/10/23 10:51:09;;;;;;;4.10;1.50;;;13.40;1.00;;;;;;5122860;27;20716;-55
2023/10/23 10:53:40;;;;;;;6.47;1.30;;;13.40;1.00;;;;;;5127140;27;20418;-55
2023/10/23 10:56:09;;;;;;;6.18;1.60;;;13.50;99.90;;;;;;5130620;27;20422;-55
2023/10/23 10:58:37;;;;;;;4.15;1.10;;;13.40;99.90;;;;;;5130349;27;20430;-56
2023/10/23 11:01:04;;;;;;;4.60;1.38;;;13.20;99.90;;;;;;5133173;27;20898;-54
2023/10/23 11:03:34;;;;;;;3.03;1.63;;;13.30;1.00;;;;;;5132196;27;20781;-56
2023/10/23 11:06:02;;;;;;;4.47;1.30;;;13.40;99.90;;;;;;5125714;27;20459;-57
2023/10/23 11:08:29;;;;;;;3.60;1.50;;;13.30;1.00;;;;;;5122798;27;20775;-57
2023/10/23 11:10:57;;;;;;;4.40;1.90;;;13.20;1.00;;;;;;5112648;28;20427;-57
2023/10/23 11:13:26;;;;;;;3.50;1.20;;;13.00;1.00;;;;;;5116161;28;20475;-56
2023/10/23 11:15:56;;;;;;;2.83;1.30;;;13.00;99.90;;;;;;5134204;27;20833;-56
2023/10/23 11:18:23;;;;;;;3.70;1.00;;;13.10;99.90;;;;;;5134752;27;20426;-56
2023/10/23 11:20:56;;;;;;;2.22;1.20;;;13.30;99.90;;;;;;5131356;27;20471;-56
2023/10/23 11:23:23;;;;;;;4.18;1.30;;;13.50;99.90;;;;;;5121428;27;20418;-57
2023/10/23 11:25:51;;;;;;;3.42;1.20;;;13.70;1.00;;;;;;5123847;27;20425;-57
2023/10/23 11:28:18;;;;;;;2.30;1.30;;;13.70;99.90;;;;;;5125863;27;20434;-57
2023/10/23 11:30:47;;;;;;;3.88;1.20;;;13.90;99.90;;;;;;5117427;27;20432;-57
2023/10/23 11:33:15;;;;;;;5.00;1.95;;;13.90;99.90;;;;;;5135493;27;20406;-56
2023/10/23 11:35:42;;;;;;;5.47;1.10;;;13.90;99.90;;;;;;5121144;27;20467;-57
2023/10/23 11:38:14;;;;;;;3.20;1.20;;;13.90;99.90;;;;;;5136470;27;20411;-56
2023/10/23 11:40:42;;;;;;;6.53;1.10;;;13.90;99.90;;;;;;5135954;27;20714;-57
2023/10/23 11:43:10;;;;;;;3.70;1.10;;;13.80;99.90;;;;;;5133300;27;20442;-55
2023/10/23 11:45:38;;;;;;;5.97;1.20;;;13.70;99.90;;;;;;5135399;27;20431;-56
2023/10/23 11:48:05;;;;;;;3.58;1.10;;;13.80;99.90;;;;;;5134404;27;20443;-56
2023/10/23 11:50:35;;;;;;;2.92;1.00;;;14.00;99.90;;;;;;5115631;28;20423;-56
2023/10/23 11:53:03;;;;;;;3.40;1.00;;;14.20;99.90;;;;;;5116295;28;20886;-57
2023/10/23 11:55:32;;;;;;;3.30;1.00;;;14.30;99.90;;;;;;5123354;27;20870;-57
2023/10/23 11:57:59;;;;;;;4.20;1.20;;;14.30;1.00;;;;;;5134314;27;20458;-57
2023/10/23 12:00:27;;;;;;;4.28;1.40;;;14.10;99.90;;;;;;5133210;27;20494;-57
2023/10/23 12:02:54;;;;;;;2.70;1.10;;;13.90;6.10;;;;;;5134835;27;20426;-55
2023/10/23 12:05:23;;;;;;;4.13;1.00;;;13.60;99.90;;;;;;5133355;27;20467;-58
2023/10/23 12:07:52;;;;;;;5.70;1.10;;;13.50;1.00;;;;;;5134147;27;20796;-56
2023/10/23 12:10:20;;;;;;;3.65;1.10;;;13.70;1.00;;;;;;5131908;27;20571;-57
2023/10/23 12:12:52;;;;;;;2.95;1.10;;;13.70;99.90;;;;;;5133887;27;20669;-58
2023/10/23 12:15:19;;;;;;;3.00;1.10;;;13.70;99.90;;;;;;5134694;27;20432;-58
2023/10/23 12:17:46;;;;;;;2.05;1.10;;;13.70;1.00;;;;;;5131706;27;20479;-58
2023/10/23 12:20:16;;;;;;;4.07;1.30;;;13.70;1.00;;;;;;5132840;27;20426;-58
2023/10/23 12:22:44;;;;;;;1.55;1.00;;;13.80;1.00;;;;;;5132875;27;20430;-58
2023/10/23 12:25:11;;;;;;;3.10;1.10;;;13.90;43.50;;;;;;5132275;27;20436;-58
2023/10/23 12:27:39;;;;;;;5.30;1.40;;;13.90;1.00;;;;;;5126858;27;20650;-58
2023/10/23 12:30:10;;;;;;;3.40;1.05;;;14.00;1.00;;;;;;5130616;27;20483;-58
2023/10/23 12:32:39;;;;;;;2.65;1.13;;;14.10;1.00;;;;;;5129478;27;20435;-58
2023/10/23 12:35:07;;;;;;;2.08;1.30;;;13.90;1.00;;;;;;5129999;27;20965;-58
2023/10/23 12:37:36;;;;;;;1.93;1.10;;;13.90;99.90;;;;;;5127041;27;20462;-58
2023/10/23 12:40:08;;;;;;;2.83;1.15;;;14.00;97.10;;;;;;5127921;27;20864;-59
2023/10/23 12:42:37;;;;;;;2.90;1.10;;;14.00;1.00;;;;;;5127428;27;20443;-57
2023/10/23 12:45:04;;;;;;;2.40;1.10;;;14.10;1.00;;;;;;5128192;27;20989;-56
2023/10/23 12:47:34;;;;;;;2.05;1.10;;;14.10;1.00;;;;;;5130218;27;20529;-56
2023/10/23 12:50:03;;;;;;;4.00;1.08;;;14.00;1.00;;;;;;5134184;27;20526;-57
2023/10/23 12:52:30;;;;;;;3.00;1.00;;;14.00;1.00;;;;;;5133792;27;20510;-57
2023/10/23 12:54:57;;;;;;;1.60;1.00;;;14.10;1.00;;;;;;5132658;27;20495;-57
2023/10/23 12:57:24;;;;;;;2.35;0.95;;;14.10;99.90;;;;;;5131468;27;20591;-57